createdAt,value
2019-05-25T00:00:55.793Z,19.16
2019-05-25T00:03:46.031Z,19.15
2019-05-25T00:06:36.175Z,19.17
2019-05-25T00:09:26.109Z,19.14
2019-05-25T00:12:16.199Z,19.17
2019-05-25T00:15:06.953Z,19.16
2019-05-25T00:17:57.209Z,19.18
2019-05-25T00:20:47.704Z,19.21
2019-05-25T00:23:38.021Z,19.23
2019-05-25T00:26:29.327Z,19.28
2019-05-25T00:29:19.647Z,19.32
2019-05-25T00:32:09.882Z,19.29
2019-05-25T00:35:00.231Z,19.36
2019-05-25T00:37:50.473Z,19.26
2019-05-25T00:40:40.776Z,19.16
2019-05-25T00:43:31.088Z,19.17
2019-05-25T00:46:21.129Z,19.13
2019-05-25T00:49:11.720Z,19.10
2019-05-25T00:52:01.898Z,19.09
2019-05-25T00:54:52.232Z,19.15
2019-05-25T00:57:42.250Z,19.15
2019-05-25T01:00:32.492Z,19.09
2019-05-25T01:03:22.625Z,19.05
2019-05-25T01:06:13.297Z,19.05
2019-05-25T01:09:03.623Z,19.04
2019-05-25T01:11:53.963Z,19.08
2019-05-25T01:14:44.144Z,19.08
2019-05-25T01:17:34.335Z,19.01
2019-05-25T01:20:25.840Z,19.05
2019-05-25T01:23:15.946Z,19.10
2019-05-25T01:26:07.175Z,18.98
2019-05-25T01:28:57.448Z,19.00
2019-05-25T01:31:47.677Z,19.00
2019-05-25T01:34:37.925Z,18.96
2019-05-25T01:37:28.134Z,19.03
2019-05-25T01:40:19.498Z,19.12
2019-05-25T01:43:09.721Z,19.21
2019-05-25T01:46:00.050Z,19.05
2019-05-25T01:48:50.423Z,19.34
2019-05-25T01:51:40.986Z,19.35
2019-05-25T01:54:31.307Z,19.42
2019-05-25T01:57:21.733Z,19.40
2019-05-25T02:00:11.925Z,19.36
2019-05-25T02:03:02.407Z,19.41
2019-05-25T02:05:52.381Z,19.29
2019-05-25T02:08:42.612Z,19.20
2019-05-25T02:11:32.982Z,19.25
2019-05-25T02:14:22.976Z,19.26
2019-05-25T02:17:13.224Z,19.24
2019-05-25T02:20:03.434Z,19.17
2019-05-25T02:22:53.748Z,19.14
2019-05-25T02:25:43.728Z,19.15
2019-05-25T02:28:33.979Z,19.15
2019-05-25T02:31:24.169Z,19.17
2019-05-25T02:34:14.504Z,19.21
2019-05-25T02:37:04.837Z,19.24
2019-05-25T02:39:55.060Z,19.26
2019-05-25T02:42:45.329Z,19.22
2019-05-25T02:45:35.802Z,19.25
2019-05-25T02:48:26.044Z,19.24
2019-05-25T02:51:16.257Z,19.22
2019-05-25T02:54:06.596Z,19.19
2019-05-25T02:56:56.807Z,19.26
2019-05-25T02:59:47.121Z,19.24
2019-05-25T03:02:37.165Z,19.18
2019-05-25T03:05:27.432Z,19.18
2019-05-25T03:08:17.394Z,19.14
2019-05-25T03:11:07.721Z,19.16
2019-05-25T03:13:57.899Z,19.19
2019-05-25T03:16:48.631Z,19.16
2019-05-25T03:19:38.527Z,19.21
2019-05-25T03:22:28.567Z,19.25
2019-05-25T03:25:18.848Z,19.29
2019-05-25T03:28:09.120Z,19.29
2019-05-25T03:30:59.561Z,19.34
2019-05-25T03:33:49.839Z,19.42
2019-05-25T03:36:39.902Z,19.53
2019-05-25T03:39:30.087Z,19.55
2019-05-25T03:42:20.243Z,19.57
2019-05-25T03:45:10.524Z,19.74
2019-05-25T03:48:00.522Z,19.83
2019-05-25T03:50:50.919Z,19.92
2019-05-25T03:53:41.197Z,20.13
2019-05-25T03:56:31.251Z,20.29
2019-05-25T03:59:21.576Z,20.47
2019-05-25T04:02:11.892Z,20.67
2019-05-25T04:05:02.251Z,20.94
2019-05-25T04:07:52.747Z,21.12
2019-05-25T04:10:43.143Z,21.38
2019-05-25T04:13:33.434Z,21.61
2019-05-25T04:16:23.628Z,22.03
2019-05-25T04:19:13.960Z,22.64
2019-05-25T04:22:04.251Z,23.35
2019-05-25T04:24:54.290Z,24.06
2019-05-25T04:27:45.155Z,24.70
2019-05-25T04:30:36.043Z,25.54
2019-05-25T04:33:26.917Z,26.87
2019-05-25T04:36:17.817Z,28.17
2019-05-25T04:39:09.002Z,28.87
2019-05-25T04:42:00.051Z,29.79
2019-05-25T04:44:50.988Z,30.65
2019-05-25T04:47:41.808Z,31.68
2019-05-25T04:50:32.265Z,32.62
2019-05-25T04:53:24.103Z,34.74
2019-05-25T04:56:14.655Z,35.52
2019-05-25T04:59:05.205Z,35.84
2019-05-25T05:01:55.693Z,35.84
2019-05-25T05:04:46.519Z,36.67
2019-05-25T05:07:37.236Z,37.32
2019-05-25T05:10:32.932Z,37.58
2019-05-25T05:13:23.486Z,38.22
2019-05-25T05:16:13.858Z,38.42
2019-05-25T05:19:04.398Z,38.81
2019-05-25T05:21:55.020Z,39.01
2019-05-25T05:24:45.571Z,39.00
2019-05-25T05:27:35.891Z,38.53
2019-05-25T05:30:35.488Z,39.32
2019-05-25T05:33:26.188Z,39.09
2019-05-25T05:36:16.596Z,38.23
2019-05-25T05:39:08.689Z,38.35
2019-05-25T05:41:58.950Z,38.26
2019-05-25T05:44:49.747Z,37.23
2019-05-25T05:47:40.941Z,36.95
2019-05-25T05:50:31.805Z,36.19
2019-05-25T05:53:22.732Z,36.63
2019-05-25T05:56:13.742Z,38.08
2019-05-25T05:59:04.376Z,37.88
2019-05-25T06:01:55.088Z,38.12
2019-05-25T06:04:45.687Z,37.43
2019-05-25T06:07:36.021Z,37.94
2019-05-25T06:10:26.274Z,37.66
2019-05-25T06:13:17.825Z,37.54
2019-05-25T06:16:08.513Z,38.37
2019-05-25T06:18:59.083Z,39.37
2019-05-25T06:21:49.413Z,39.02
2019-05-25T06:24:40.023Z,38.50
2019-05-25T06:27:30.295Z,37.66
2019-05-25T06:30:20.831Z,37.46
2019-05-25T06:33:11.539Z,37.59
2019-05-25T06:36:03.134Z,37.59
2019-05-25T06:38:53.716Z,37.91
2019-05-25T06:41:44.277Z,38.55
2019-05-25T06:44:34.561Z,38.29
2019-05-25T06:47:25.429Z,38.29
2019-05-25T06:50:16.144Z,37.81
2019-05-25T06:53:07.068Z,37.43
2019-05-25T06:55:57.550Z,37.83
2019-05-25T06:58:48.760Z,37.83
2019-05-25T07:01:39.210Z,37.99
2019-05-25T07:04:30.078Z,37.54
2019-05-25T07:07:20.617Z,38.15
2019-05-25T07:10:10.980Z,38.92
2019-05-25T07:13:01.421Z,39.22
2019-05-25T07:15:52.205Z,39.45
2019-05-25T07:18:42.928Z,40.45
2019-05-25T07:21:33.327Z,40.32
2019-05-25T07:24:23.893Z,39.81
2019-05-25T07:27:14.566Z,41.45
2019-05-25T07:30:05.338Z,42.38
2019-05-25T07:32:55.932Z,41.64
2019-05-25T07:35:46.457Z,42.27
2019-05-25T07:38:36.812Z,43.35
2019-05-25T07:41:27.295Z,42.24
2019-05-25T07:44:17.676Z,42.66
2019-05-25T07:47:08.490Z,43.48
2019-05-25T07:49:59.287Z,43.31
2019-05-25T07:52:49.803Z,42.90
2019-05-25T07:55:40.661Z,40.95
2019-05-25T07:58:31.946Z,37.47
2019-05-25T08:01:22.784Z,34.89
2019-05-25T08:04:13.569Z,34.02
2019-05-25T08:07:04.494Z,32.78
2019-05-25T08:09:55.388Z,32.45
2019-05-25T08:12:46.236Z,31.45
2019-05-25T08:15:38.571Z,31.13
2019-05-25T08:18:30.358Z,30.41
2019-05-25T08:21:21.236Z,30.56
2019-05-25T08:24:12.085Z,30.23
2019-05-25T08:27:02.950Z,29.84
2019-05-25T08:29:53.979Z,29.79
2019-05-25T08:32:44.975Z,29.61
2019-05-25T08:35:35.601Z,29.95
2019-05-25T08:38:26.576Z,29.84
2019-05-25T08:41:17.556Z,29.45
2019-05-25T08:44:08.547Z,29.47
2019-05-25T08:46:59.451Z,29.40
2019-05-25T08:49:50.181Z,29.26
2019-05-25T08:52:41.072Z,29.27
2019-05-25T08:55:31.813Z,29.55
2019-05-25T08:58:22.351Z,29.54
2019-05-25T09:01:12.899Z,30.09
2019-05-25T09:04:03.734Z,30.75
2019-05-25T09:06:54.513Z,31.00
2019-05-25T09:09:45.412Z,31.21
2019-05-25T09:12:36.039Z,31.49
2019-05-25T09:15:26.750Z,31.79
2019-05-25T09:18:17.689Z,31.60
2019-05-25T09:21:09.144Z,31.66
2019-05-25T09:23:59.850Z,30.95
2019-05-25T09:26:50.712Z,30.30
2019-05-25T09:29:41.221Z,30.12
2019-05-25T09:32:32.090Z,29.85
2019-05-25T09:35:22.898Z,29.50
2019-05-25T09:38:13.765Z,29.09
2019-05-25T09:41:04.562Z,28.57
2019-05-25T09:43:55.383Z,28.25
2019-05-25T09:46:46.243Z,27.98
2019-05-25T09:49:37.128Z,27.84
2019-05-25T09:52:27.788Z,28.20
2019-05-25T09:55:18.693Z,28.31
2019-05-25T09:58:09.477Z,28.51
2019-05-25T10:01:00.550Z,28.66
2019-05-25T10:03:51.524Z,28.63
2019-05-25T10:06:42.614Z,28.63
2019-05-25T10:09:33.551Z,28.72
2019-05-25T10:12:24.590Z,28.80
2019-05-25T10:15:15.581Z,28.84
2019-05-25T10:18:06.449Z,28.73
2019-05-25T10:20:57.276Z,28.77
2019-05-25T10:23:48.279Z,28.83
2019-05-25T10:26:38.980Z,28.51
2019-05-25T10:29:37.268Z,28.61
2019-05-25T10:32:22.213Z,28.67
2019-05-25T10:35:13.184Z,28.58
2019-05-25T10:38:04.437Z,28.57
2019-05-25T10:40:58.383Z,28.38
2019-05-25T10:43:47.702Z,28.02
2019-05-25T10:46:38.566Z,27.91
2019-05-25T10:49:30.386Z,27.98
2019-05-25T10:52:21.379Z,28.08
2019-05-25T10:55:12.199Z,28.03
2019-05-25T10:58:03.101Z,28.01
2019-05-25T11:00:53.738Z,27.96
2019-05-25T11:03:44.871Z,27.86
2019-05-25T11:06:35.811Z,27.69
2019-05-25T11:09:26.797Z,27.67
2019-05-25T11:12:17.275Z,27.63
2019-05-25T11:15:08.158Z,27.68
2019-05-25T11:17:58.874Z,27.65
2019-05-25T11:20:49.797Z,27.60
2019-05-25T11:23:40.667Z,27.68
2019-05-25T11:26:31.580Z,27.71
2019-05-25T11:29:22.439Z,27.75
2019-05-25T11:32:13.339Z,27.77
2019-05-25T11:35:04.154Z,27.84
2019-05-25T11:37:55.078Z,27.99
2019-05-25T11:40:45.675Z,28.02
2019-05-25T11:43:36.674Z,28.10
2019-05-25T11:46:27.592Z,28.18
2019-05-25T11:49:22.663Z,28.18
2019-05-25T11:52:10.951Z,28.18
2019-05-25T11:55:02.035Z,28.18
2019-05-25T11:57:52.908Z,28.17
2019-05-25T12:00:43.490Z,28.15
2019-05-25T12:03:34.196Z,28.06
2019-05-25T12:06:24.938Z,27.93
2019-05-25T12:09:15.503Z,27.88
2019-05-25T12:12:06.136Z,27.85
2019-05-25T12:14:56.673Z,27.90
2019-05-25T12:17:47.312Z,27.80
2019-05-25T12:20:37.852Z,27.82
2019-05-25T12:23:28.785Z,27.93
2019-05-25T12:26:19.684Z,28.02
2019-05-25T12:29:10.672Z,28.13
2019-05-25T12:32:04.464Z,28.15
2019-05-25T13:00:21.947Z,26.75
2019-05-25T13:03:12.661Z,26.71
2019-05-25T13:06:03.637Z,26.75
2019-05-25T13:08:54.464Z,26.67
2019-05-25T13:11:45.467Z,26.68
2019-05-25T13:14:36.116Z,26.71
2019-05-25T13:17:26.966Z,26.59
2019-05-25T13:20:18.791Z,26.59
2019-05-25T13:23:09.346Z,26.52
2019-05-25T13:26:00.178Z,26.26
2019-05-25T13:28:51.050Z,26.17
2019-05-25T13:31:41.907Z,26.01
2019-05-25T13:34:32.699Z,25.93
2019-05-25T13:37:23.518Z,25.97
2019-05-25T13:40:14.445Z,26.01
2019-05-25T13:43:05.375Z,26.12
2019-05-25T13:45:56.423Z,26.22
2019-05-25T13:48:47.324Z,26.33
2019-05-25T13:51:38.103Z,26.32
2019-05-25T13:54:28.899Z,26.32
2019-05-25T13:57:19.885Z,26.39
2019-05-25T14:00:10.586Z,26.38
2019-05-25T14:03:01.484Z,26.46
2019-05-25T14:05:52.272Z,26.49
2019-05-25T14:08:43.112Z,26.55
2019-05-25T14:11:33.880Z,26.59
2019-05-25T14:14:24.792Z,26.54
2019-05-25T14:17:15.392Z,26.56
2019-05-25T14:20:06.534Z,26.44
2019-05-25T14:22:57.262Z,26.39
2019-05-25T14:25:48.142Z,26.26
2019-05-25T14:28:39.197Z,26.18
2019-05-25T14:31:44.480Z,26.10
2019-05-25T14:34:22.571Z,26.06
2019-05-25T14:37:13.833Z,26.07
2019-05-25T14:40:05.176Z,26.00
2019-05-25T14:42:56.058Z,25.97
2019-05-25T14:45:46.843Z,25.89
2019-05-25T14:48:37.555Z,25.89
2019-05-25T14:51:28.407Z,25.87
2019-05-25T14:54:19.122Z,25.87
2019-05-25T14:57:09.847Z,25.86
2019-05-25T15:00:00.467Z,25.80
2019-05-25T15:02:51.329Z,25.74
2019-05-25T15:05:42.315Z,25.74
2019-05-25T15:08:33.103Z,25.77
2019-05-25T15:11:23.999Z,25.82
2019-05-25T15:14:14.783Z,25.76
2019-05-25T15:17:05.886Z,25.75
2019-05-25T15:19:56.870Z,25.70
2019-05-25T15:22:48.067Z,25.68
2019-05-25T15:25:38.935Z,25.66
2019-05-25T15:28:29.864Z,25.56
2019-05-25T15:31:20.642Z,25.54
2019-05-25T15:34:11.287Z,25.57
2019-05-25T15:37:01.974Z,25.58
2019-05-25T15:39:52.753Z,25.52
2019-05-25T15:42:43.555Z,25.48
2019-05-25T15:45:34.449Z,25.33
2019-05-25T15:48:26.397Z,25.28
2019-05-25T15:51:17.407Z,25.32
2019-05-25T15:54:10.716Z,25.29
2019-05-25T15:57:00.962Z,25.22
2019-05-25T15:59:51.910Z,25.11
2019-05-25T16:02:42.813Z,25.02
2019-05-25T16:05:34.670Z,24.88
2019-05-25T16:08:25.044Z,24.64
2019-05-25T16:11:15.515Z,24.43
2019-05-25T16:14:07.810Z,24.26
2019-05-25T16:16:57.961Z,24.05
2019-05-25T16:19:48.534Z,24.01
2019-05-25T16:22:38.669Z,23.88
2019-05-25T16:25:29.001Z,23.90
2019-05-25T16:28:19.163Z,23.83
2019-05-25T16:31:09.380Z,23.78
2019-05-25T16:33:59.662Z,23.78
2019-05-25T16:36:50.009Z,23.79
2019-05-25T16:39:40.523Z,23.81
2019-05-25T16:42:30.628Z,23.77
2019-05-25T16:45:20.996Z,23.79
2019-05-25T16:48:11.427Z,23.71
2019-05-25T16:51:01.623Z,23.82
2019-05-25T16:53:51.837Z,23.84
2019-05-25T16:56:42.131Z,23.91
2019-05-25T16:59:32.216Z,23.88
2019-05-25T17:02:22.363Z,23.70
2019-05-25T17:05:14.201Z,23.67
2019-05-25T17:08:04.320Z,23.60
2019-05-25T17:10:54.553Z,23.49
2019-05-25T17:13:44.641Z,23.44
2019-05-25T17:16:34.996Z,23.41
2019-05-25T17:19:25.227Z,23.39
2019-05-25T17:22:15.478Z,23.29
2019-05-25T17:25:06.132Z,23.18
2019-05-25T17:27:56.144Z,23.08
2019-05-25T17:30:46.723Z,23.09
2019-05-25T17:33:46.013Z,22.99
2019-05-25T17:36:28.504Z,22.92
2019-05-25T17:39:18.649Z,22.81
2019-05-25T17:42:08.914Z,22.78
2019-05-25T17:44:59.369Z,22.77
2019-05-25T17:47:49.703Z,22.64
2019-05-25T17:50:39.739Z,22.65
2019-05-25T17:53:31.102Z,22.53
2019-05-25T17:56:21.486Z,22.53
2019-05-25T17:59:11.824Z,22.47
2019-05-25T18:02:01.856Z,22.44
2019-05-25T18:04:51.877Z,22.44
2019-05-25T18:07:42.067Z,22.44
2019-05-25T18:10:32.148Z,22.44
2019-05-25T18:13:22.535Z,22.39
2019-05-25T18:16:12.544Z,22.35
2019-05-25T18:19:02.853Z,22.35
2019-05-25T18:21:53.052Z,22.31
2019-05-25T18:24:43.256Z,22.30
2019-05-25T18:27:33.244Z,22.26
2019-05-25T18:30:23.646Z,22.25
2019-05-25T18:33:13.882Z,22.30
2019-05-25T18:36:04.135Z,22.30
2019-05-25T18:38:54.499Z,22.28
2019-05-25T18:41:44.991Z,22.27
2019-05-25T18:44:35.293Z,22.24
2019-05-25T18:47:25.348Z,22.27
2019-05-25T18:50:18.753Z,22.24
2019-05-25T18:53:08.940Z,22.12
2019-05-25T18:55:59.250Z,22.02
2019-05-25T18:58:49.722Z,22.04
2019-05-25T19:01:39.924Z,22.03
2019-05-25T19:04:43.363Z,22.00
2019-05-25T19:07:21.570Z,21.96
2019-05-25T19:10:11.940Z,21.89
2019-05-25T19:13:01.980Z,21.70
2019-05-25T19:15:52.471Z,21.82
2019-05-25T19:18:42.850Z,21.83
2019-05-25T19:21:34.265Z,21.82
2019-05-25T19:24:24.198Z,21.83
2019-05-25T19:27:14.420Z,21.80
2019-05-25T19:30:04.708Z,21.76
2019-05-25T19:32:55.021Z,21.80
2019-05-25T19:35:46.241Z,21.74
2019-05-25T19:38:36.480Z,21.75
2019-05-25T19:41:26.699Z,21.89
2019-05-25T19:44:17.112Z,21.74
2019-05-25T19:47:07.602Z,21.71
2019-05-25T19:49:58.030Z,21.69
2019-05-25T19:52:48.201Z,21.68
2019-05-25T19:55:38.243Z,21.70
2019-05-25T19:58:28.376Z,21.47
2019-05-25T20:01:18.463Z,21.56
2019-05-25T20:04:08.725Z,21.51
2019-05-25T20:06:58.852Z,21.29
2019-05-25T20:09:48.807Z,21.23
2019-05-25T20:12:40.179Z,21.31
2019-05-25T20:15:30.243Z,21.24
2019-05-25T20:18:20.598Z,21.25
2019-05-25T20:21:10.654Z,21.29
2019-05-25T20:24:00.680Z,21.36
2019-05-25T20:26:51.888Z,21.41
2019-05-25T20:29:42.189Z,21.39
2019-05-25T20:32:32.374Z,21.38
2019-05-25T20:35:32.225Z,21.48
2019-05-25T20:38:14.304Z,21.44
2019-05-25T20:41:04.617Z,21.40
2019-05-25T20:43:55.852Z,21.41
2019-05-25T20:46:46.158Z,21.38
2019-05-25T20:49:36.636Z,21.36
2019-05-25T20:52:26.755Z,21.31
2019-05-25T20:55:16.936Z,21.22
2019-05-25T20:58:07.385Z,21.19
2019-05-25T21:00:57.563Z,21.19
2019-05-25T21:03:48.907Z,21.18
2019-05-25T21:06:38.917Z,21.13
2019-05-25T21:09:29.253Z,21.09
2019-05-25T21:12:19.243Z,21.08
2019-05-25T21:15:09.677Z,21.04
2019-05-25T21:17:59.928Z,20.99
2019-05-25T21:20:50.329Z,20.89
2019-05-25T21:23:41.616Z,20.82
2019-05-25T21:26:31.860Z,20.83
2019-05-25T21:29:22.056Z,20.83
2019-05-25T21:32:12.361Z,20.75
2019-05-25T21:35:02.380Z,20.70
2019-05-25T21:37:52.673Z,20.73
2019-05-25T21:40:42.936Z,20.75
2019-05-25T21:43:33.241Z,20.74
2019-05-25T21:46:23.447Z,20.66
2019-05-25T21:49:13.971Z,20.65
2019-05-25T21:52:04.296Z,20.71
2019-05-25T21:54:54.559Z,20.74
2019-05-25T21:57:44.798Z,20.69
2019-05-25T22:00:37.801Z,20.76
2019-05-25T22:03:27.776Z,20.79
2019-05-25T22:06:24.415Z,20.85
2019-05-25T22:09:09.897Z,20.87
2019-05-25T22:11:59.840Z,20.83
2019-05-25T22:14:49.993Z,20.83
2019-05-25T22:17:40.725Z,20.84
2019-05-25T22:20:30.960Z,20.82
2019-05-25T22:23:21.592Z,20.83
2019-05-25T22:26:11.750Z,20.80
2019-05-25T22:29:01.916Z,20.80
2019-05-25T22:31:52.140Z,20.84
2019-05-25T22:34:42.193Z,20.90
2019-05-25T22:37:32.212Z,20.89
2019-05-25T22:40:22.449Z,20.89
2019-05-25T22:43:12.431Z,20.92
2019-05-25T22:46:02.517Z,20.97
2019-05-25T22:48:52.957Z,20.98
2019-05-25T22:51:43.315Z,20.95
2019-05-25T22:54:33.452Z,20.98
2019-05-25T22:57:23.838Z,20.92
2019-05-25T23:00:15.180Z,20.86
2019-05-25T23:03:05.427Z,20.86
2019-05-25T23:05:55.454Z,20.85
2019-05-25T23:08:45.802Z,20.86
2019-05-25T23:11:36.080Z,20.82
2019-05-25T23:14:26.247Z,20.82
2019-05-25T23:17:16.353Z,20.80
2019-05-25T23:20:07.001Z,20.79
2019-05-25T23:22:57.266Z,20.84
2019-05-25T23:25:47.257Z,20.83
2019-05-25T23:28:37.488Z,20.81
2019-05-25T23:31:27.794Z,20.77
2019-05-25T23:34:17.823Z,20.82
2019-05-25T23:37:14.660Z,20.82
2019-05-25T23:39:59.602Z,20.82
2019-05-25T23:42:49.844Z,20.83
2019-05-25T23:45:40.106Z,20.84
2019-05-25T23:48:30.562Z,20.86
2019-05-25T23:51:20.991Z,20.84
2019-05-25T23:54:11.258Z,20.86
2019-05-25T23:57:01.540Z,20.82
2019-05-25T23:59:51.722Z,20.77
